Tiempo atmosférico en la estación meteorológica de Ossa De Montiel, Albacete (905 m.)



Fecha
DESCASC
Temp. máxima en grados centígrados (hora)
DESCASC
Temp. mínima en grados centígrados (hora)
DESCASC
Temp. media en grados centígrados
DESCASC
Racha de viento máxima en m/sg (hora)
DESCASC
Velocidad máxima media en intervalos de 10 minutos(hora)
DESCASC
Precipitaciones diarias en mm
DESCASC
Precipitaciones de 00:00 a 06:00 en mm
DESCASC
Precipitaciones de 06:00 a 12:00 en mm
DESCASC
Precipitaciones de 12:00 a 18:00 en mm
DESCASC
Precipitaciones de 18:00 a 24:00 en mm
DESCASC
25-04-2019 -- (--) -- (--) -- -- (--) -- (--) -- -- -- -- --
24-04-2019 13.7 (16:30) 2.5 (07:10) 8.1 17.78 (16:10) 9.44 (16:10) -- -- -- -- --
23-04-2019 11.2 (16:20) 3.5 (23:00) 7.3 13.33 (18:20) 7.22 (18:20) -- -- -- -- --
22-04-2019 13.9 (17:50) 5.8 (00:00) 9.8 8.06 (13:20) 3.89 (15:30) -- -- -- -- --
21-04-2019 9.1 (13:50) 5.5 (00:00) 7.3 9.17 (00:10) 4.17 (01:30) -- -- -- -- --
20-04-2019 9.7 (13:20) 6 (00:00) 7.8 16.67 (17:10) 8.06 (16:50) -- -- -- -- --
19-04-2019 9.9 (14:10) 5.9 (00:00) 7.9 8.06 (21:50) 4.44 (21:30) -- -- -- -- --
18-04-2019 14.8 (00:00) 7.5 (00:00) 11.2 6.39 (20:30) 3.33 (10:20) -- -- -- -- --
17-04-2019 25.4 (15:40) 8.3 (00:00) 16.8 10.83 (16:20) 5.28 (16:20) -- -- -- -- --
16-04-2019 22.8 (18:00) 4.8 (00:00) 13.8 7.22 (00:20) 2.78 (00:10) -- -- -- -- --
15-04-2019 23.8 (15:30) 8.7 (00:00) 16.2 13.89 (18:50) 8.61 (16:10) 0 0 0 0 0
14-04-2019 22 (17:30) 4.5 (00:00) 13.3 7.78 (15:30) 4.17 (17:20) 0 0 0 0 0
13-04-2019 19.1 (16:50) 0.5 (00:00) 9.8 7.78 (16:50) 3.89 (18:20) 0 0 0 0 0
12-04-2019 15.5 (18:40) 0.3 (00:00) 7.9 8.89 (18:00) 3.33 (12:30) 0 0 0 0 0
11-04-2019 13.8 (16:10) 0.7 (00:00) 7.3 8.61 (15:20) 4.17 (11:40) 0 0 0 0 0
10-04-2019 12.6 (14:50) 4.4 (00:00) 8.5 10.83 (16:00) 5 (15:40) 1.4 0 0 1.4 0
09-04-2019 10.8 (16:30) 3.8 (00:00) 7.3 12.22 (16:00) 6.94 (16:20) 0.2 0 0 0 0.2
08-04-2019 13.3 (15:30) 7.5 (00:00) 10.4 10.83 (15:00) 5.56 (11:10) 2.8 0.2 0.2 0.8 1.6
07-04-2019 10.4 (17:20) 3 (00:00) 6.7 13.33 (07:30) 5.28 (16:20) 0.4 0 0.4 0 0
06-04-2019 8.4 (17:00) 1.2 (00:00) 4.8 14.44 (15:40) 6.94 (12:20) 0.4 0 0 0.4 0
05-04-2019 6.7 (00:00) 2.2 (00:00) 4.4 12.78 (16:00) 5.83 (16:00) 1.8 0 0.2 1.6 0
04-04-2019 14.5 (16:50) 0.3 (00:00) 7.4 9.72 (18:00) 3.33 (19:10) 0 0 0 0 0
03-04-2019 17.1 (15:30) 3.7 (00:00) 10.4 12.5 (18:00) 6.67 (14:40) 0 0 0 0 0
02-04-2019 16.6 (16:40) 8.2 (00:00) 12.4 7.78 (18:10) 3.89 (16:10) 0 0 0 0 0
01-04-2019 13.2 (19:10) 7.7 (00:00) 10.4 8.06 (21:50) 3.61 (21:50) 0.4 0 0 0.2 0.2
31-03-2019 9.3 (16:50) 5.3 (00:00) 7.3 9.17 (00:20) 4.44 (10:20) 1 0.6 0.4 0 0
30-03-2019 18.2 (15:50) 4.2 (00:00) 11.2 10.28 (19:30) 6.11 (18:30) 0 0 0 0 0
29-03-2019 15.5 (16:10) 3.9 (00:00) 9.7 10.56 (10:00) 5.28 (17:50) 0 0 0 0 0
28-03-2019 16.3 (13:50) 0 (00:00) 8.1 10.28 (14:50) 5 (11:10) 0 0 0 0 0
27-03-2019 14.9 (14:40) 2.4 (00:00) 8.6 12.22 (02:00) 6.11 (02:00) 0 0 0 0 0

Gráficas

Temp. máximas Temp. mínimas Temp. medias Precipitaciones Rachas de viento máximas Velocidades máximas media en intervalos de 10 minutos

Datos horarios

Fecha y hora oficial Temperatura (ºC) Velocidad del viento (km/h) Dirección del viento Racha (km/h) Dirección de racha Precipitación (mm) Presión (hPa) Tendencia (hPa) Humedad (%)
2019-04-25 23:00:00 -- -- -- -- -- -- -- -- --
2019-04-25 22:00:00 7.9 14 Noroeste 38 Oeste 0 -- -- 77
2019-04-25 21:00:00 8.7 11 Noroeste 37 Noroeste 0 -- -- 71
2019-04-25 20:00:00 10.3 14 Noroeste 42 Noroeste 0 -- -- 69
2019-04-25 19:00:00 11.1 16 Noroeste 46 Noroeste 0 -- -- 64
2019-04-25 18:00:00 10.7 15 Noroeste 51 Noroeste 0 -- -- 67
2019-04-25 17:00:00 12.2 18 Noroeste 43 Noroeste 0 -- -- 62
2019-04-25 16:00:00 11.7 18 Noroeste 46 Noroeste 0 -- -- 68
2019-04-25 15:00:00 12.5 21 Oeste 47 Noroeste 0 -- -- 58
2019-04-25 14:00:00 11.9 22 Oeste 44 Oeste 0 -- -- 64
2019-04-25 13:00:00 9.1 12 Oeste 32 Oeste 0 -- -- 82
2019-04-25 12:00:00 7.4 10 Oeste 30 Norte 0 -- -- 92
2019-04-25 11:00:00 6.1 13 Noroeste 32 Noroeste 0 -- -- 93
2019-04-25 10:00:00 6.4 15 Noroeste 43 Noroeste 0 -- -- 97
2019-04-25 09:00:00 7.4 9 Noroeste 35 Oeste 0 -- -- 97
2019-04-25 08:00:00 7.2 10 Noroeste 23 Noroeste 0 -- -- 97
2019-04-25 07:00:00 7.2 11 Noroeste 27 Noroeste 0 -- -- 97
2019-04-25 06:00:00 7.4 14 Oeste 36 Noroeste 0 -- -- 96
2019-04-25 05:00:00 8.8 21 Noroeste 50 Oeste 0 -- -- 92
2019-04-25 04:00:00 10 25 Oeste 57 Oeste 0 -- -- 90
2019-04-25 03:00:00 9.7 29 Oeste 61 Oeste 0 -- -- 91
2019-04-25 02:00:00 9.6 26 Oeste 49 Oeste 0 -- -- 90
2019-04-25 01:00:00 9.6 23 Oeste 42 Sudoeste 0 -- -- 90
2019-04-25 00:00:00 9.5 22 Oeste 52 Oeste 0 -- -- 91
2019-04-24 23:00:00 9.5 21 Oeste 45 Sudoeste 0 -- -- 92
2019-04-24 22:00:00 9.7 19 Sudoeste 40 Oeste 0 -- -- 89
2019-04-24 21:00:00 10.1 22 Oeste 50 Oeste 0 -- -- 85
2019-04-24 20:00:00 11.2 30 Oeste 55 Oeste 0 -- -- 77
2019-04-24 19:00:00 12.4 25 Oeste 53 Oeste 0 -- -- 71
2019-04-24 18:00:00 12.8 28 Sudoeste 60 Oeste 0 -- -- 68
2019-04-24 17:00:00 13.5 28 Oeste 64 Oeste 0 -- -- 63
2019-04-24 16:00:00 13.4 32 Oeste 55 Oeste 0 -- -- 64
2019-04-24 15:00:00 11.5 27 Oeste 54 Oeste 0 -- -- 71
2019-04-24 14:00:00 10.4 31 Oeste 55 Oeste 0 -- -- 74
2019-04-24 13:00:00 8.6 27 Oeste 54 Oeste 0 -- -- 80
2019-04-24 12:00:00 8 24 Oeste 51 Sudoeste 0 -- -- 83
2019-04-24 11:00:00 7.7 26 Oeste 55 Oeste 0 -- -- 81
2019-04-24 10:00:00 6.9 20 Oeste 45 Oeste 0 -- -- 83
2019-04-24 09:00:00 5.3 17 Sudoeste 33 Oeste 0 -- -- 87
2019-04-24 08:00:00 3.3 12 Oeste 27 Oeste 0 -- -- 94
2019-04-24 07:00:00 2.6 12 Oeste 21 Oeste 0 -- -- 95
2019-04-24 06:00:00 3.5 12 Oeste 25 Oeste 0 -- -- 94
2019-04-24 05:00:00 3.3 10 Oeste 26 Sudoeste 0 -- -- 94
2019-04-24 04:00:00 3.2 14 Oeste 25 Oeste 0 -- -- 94
2019-04-24 03:00:00 3.3 12 Oeste 26 Oeste 0 -- -- 94
2019-04-24 02:00:00 3.4 12 Oeste 22 Oeste 0 -- -- 95
2019-04-24 01:00:00 3.4 9 Oeste 29 Oeste 0 -- -- 94
2019-04-24 00:00:00 3.9 14 Oeste 33 Oeste 0 -- -- 93
2019-04-23 23:00:00 3.5 10 Oeste 32 Oeste 0 -- -- 93
2019-04-23 22:00:00 4.3 17 Oeste 33 Oeste 0 -- -- 90
2019-04-23 21:00:00 4 14 Noroeste 42 Noroeste 0 -- -- 90
2019-04-23 20:00:00 7.6 16 Oeste 33 Sudoeste 0 -- -- 73
2019-04-23 19:00:00 8.4 15 Oeste 48 Oeste 0 -- -- 67
2019-04-23 18:00:00 9.1 24 Oeste 44 Sudoeste 0 -- -- 64
2019-04-23 17:00:00 10.1 18 Oeste 39 Oeste 0 -- -- 68
2019-04-23 16:00:00 11 23 Oeste 38 Oeste 0 -- -- 66
2019-04-23 15:00:00 7.3 14 Oeste 40 Oeste 0 -- -- 92
2019-04-23 14:00:00 8.6 21 Oeste 39 Oeste 0 -- -- 86
2019-04-23 13:00:00 9.1 19 Oeste 42 Oeste 0 -- -- 88
2019-04-23 12:00:00 9.9 14 Oeste 34 Oeste 0 -- -- 83
2019-04-23 11:00:00 8.3 19 Oeste 41 Oeste 0 -- -- 93
2019-04-23 10:00:00 9.8 18 Oeste 35 Oeste 0 -- -- 84
2019-04-23 09:00:00 8.4 9 Oeste 23 Oeste 0 -- -- 92
2019-04-23 08:00:00 8.3 7 Sudoeste 20 Oeste 0 -- -- 90
2019-04-23 07:00:00 7.9 9 Sudoeste 22 Sudoeste 0 -- -- 91
2019-04-23 06:00:00 7.9 12 Oeste 25 Sudoeste 0 -- -- 91
2019-04-23 05:00:00 8.1 14 Sudoeste 23 Sudoeste 0 -- -- 90
2019-04-23 04:00:00 8.1 10 Sudoeste 24 Sudoeste 0 -- -- 91
2019-04-23 03:00:00 8.6 13 Oeste 26 Sudoeste 0 -- -- 89
2019-04-23 02:00:00 9.2 12 Sudoeste 22 Sudoeste 0 -- -- 87
2019-04-23 01:00:00 9.1 5 Sudoeste 14 Sudoeste 0 -- -- 88
2019-04-23 00:00:00 9.4 5 Sudoeste 13 Sudoeste 0 -- -- 87
2019-04-22 23:00:00 10 7 Sudoeste 22 Oeste 0 -- -- 84
2019-04-22 22:00:00 10.4 6 Sudoeste 21 Oeste 0 -- -- 82
2019-04-22 21:00:00 11.4 11 Oeste 21 Sudoeste 0 -- -- 76
2019-04-22 20:00:00 12.6 8 Oeste 27 Noroeste 0 -- -- 66
2019-04-22 19:00:00 13.5 11 Noroeste 21 Noroeste 0 -- -- 61
2019-04-22 18:00:00 13.5 11 Noroeste 26 Noroeste 0 -- -- 62
2019-04-22 17:00:00 13 10 Oeste 24 Oeste 0 -- -- 67
2019-04-22 16:00:00 12.2 12 Oeste 26 Oeste 0 -- -- 73
2019-04-22 15:00:00 11.9 12 Noroeste 25 Noroeste 0 -- -- 73
2019-04-22 14:00:00 11.9 13 Noroeste 29 Noroeste 0 -- -- 72
2019-04-22 13:00:00 10.9 10 Noroeste 23 Noroeste 0 -- -- 79
2019-04-22 12:00:00 9.9 7 Noroeste 19 Noroeste 0 -- -- 84
2019-04-22 11:00:00 9.5 7 Norte 15 Norte 0 -- -- 86
2019-04-22 10:00:00 8 5 Norte 11 Norte 0 -- -- 97
2019-04-22 09:00:00 6.6 3 Norte 9 Norte 0 -- -- 98
2019-04-22 08:00:00 6.4 4 Norte 9 Norte 0 -- -- 98
2019-04-22 07:00:00 6.3 3 Norte 9 Norte 0 -- -- 98
2019-04-22 06:00:00 6.2 5 Norte 13 Nordeste 0 -- -- 97
2019-04-22 05:00:00 6.2 6 Norte 13 Nordeste 0 -- -- 97
2019-04-22 04:00:00 5.8 3 Nordeste 10 Norte 0 -- -- 96
2019-04-22 03:00:00 6 3 Nordeste 9 Nordeste 0 -- -- 96
2019-04-22 02:00:00 6.4 4 Este 15 Este 0 -- -- 97
2019-04-22 01:00:00 6.8 9 Este 16 Nordeste 0 -- -- 97
2019-04-22 00:00:00 6.9 9 Este 15 Nordeste 0 -- -- 97
2019-04-21 23:00:00 7.2 4 Nordeste 12 Nordeste 0 -- -- 96
2019-04-21 22:00:00 7.2 6 Nordeste 13 Nordeste 0 -- -- 96
2019-04-21 21:00:00 7.4 6 Nordeste 12 Nordeste 0 -- -- 94
2019-04-21 20:00:00 7.6 5 Nordeste 12 Nordeste 0 -- -- 94
2019-04-21 19:00:00 7.6 6 Nordeste 10 Nordeste 0 -- -- 92
2019-04-21 18:00:00 7.8 6 Nordeste 18 Este 0 -- -- 89
2019-04-21 17:00:00 8 9 Este 22 Este 0 -- -- 88
2019-04-21 16:00:00 8.6 10 Este 21 Este 0 -- -- 87
2019-04-21 15:00:00 8 11 Este 23 Este 0 -- -- 85
2019-04-21 14:00:00 9 10 Este 26 Este 0 -- -- 77
2019-04-21 13:00:00 8.4 12 Este 23 Este 0 -- -- 80
2019-04-21 12:00:00 7.2 8 Este 18 Este 0 -- -- 84
2019-04-21 11:00:00 7 8 Este 17 Este 0 -- -- 85
2019-04-21 10:00:00 6.2 6 Este 17 Sudeste 0 -- -- 89
2019-04-21 09:00:00 5.8 7 Este 17 Este 0 -- -- 90
2019-04-21 08:00:00 5.6 6 Este 17 Nordeste 0 -- -- 92
2019-04-21 07:00:00 5.5 10 Este 20 Nordeste 0 -- -- 93
2019-04-21 06:00:00 5.6 9 Este 21 Este 0 -- -- 92
2019-04-21 05:00:00 5.6 8 Este 18 Este 0 -- -- 94
2019-04-21 04:00:00 5.8 8 Este 14 Este 0 -- -- 93
2019-04-21 03:00:00 6.1 6 Nordeste 18 Este 0 -- -- 92
2019-04-21 02:00:00 7.2 12 Este 28 Este 0 -- -- 80
2019-04-21 01:00:00 7.5 13 Este 33 Sudeste 0 -- -- 77
2019-04-21 00:00:00 7.9 12 Sudeste 31 Sudeste 0 -- -- 75
2019-04-20 23:00:00 7.8 13 Este 32 Sudeste 0 -- -- 78
2019-04-20 22:00:00 8.2 14 Este 31 Sudeste 0 -- -- 75
2019-04-20 21:00:00 8.3 14 Este 35 Este 0 -- -- 78
2019-04-20 20:00:00 8.7 19 Este 41 Este 0 -- -- 79
2019-04-20 19:00:00 9 19 Este 52 Sudeste 0 -- -- 79
2019-04-20 18:00:00 8.6 19 Este 60 Este 0 -- -- 84
2019-04-20 17:00:00 7.7 28 Este 60 Este 0 -- -- 90
2019-04-20 16:00:00 7.9 22 Este 50 Este 0 -- -- 92
2019-04-20 15:00:00 8.2 23 Este 51 Sudeste 0 -- -- 88
2019-04-20 14:00:00 8.4 22 Este 57 Este 0 -- -- 82
2019-04-20 13:00:00 9.6 28 Este 55 Sudeste 0 -- -- 76
2019-04-20 12:00:00 8.8 23 Sudeste 54 Este 0 -- -- 79
2019-04-20 11:00:00 8.1 19 Sudeste 40 Este 0 -- -- 85
2019-04-20 10:00:00 8.1 11 Sudeste 43 Este 0.2 -- -- 88
2019-04-20 09:00:00 8.1 17 Este 37 Este 0 -- -- 84
2019-04-20 08:00:00 7.9 17 Este 35 Este 0 -- -- 84
2019-04-20 07:00:00 7.5 19 Este 48 Este 0.2 -- -- 90
2019-04-20 06:00:00 7 19 Nordeste 35 Este 0 -- -- 97
2019-04-20 05:00:00 7 15 Nordeste 30 Nordeste 0 -- -- 99
2019-04-20 04:00:00 6.7 12 Nordeste 27 Nordeste 0 -- -- 99
2019-04-20 03:00:00 6 16 Nordeste 26 Nordeste 0 -- -- 98
2019-04-20 02:00:00 6 10 Nordeste 19 Este 0 -- -- 98
2019-04-20 01:00:00 6 12 Este 20 Este 0 -- -- 98
2019-04-20 00:00:00 6 13 Este 21 Este 0 -- -- 97
2019-04-19 23:00:00 5.9 10 Este 22 Este 0 -- -- 97
2019-04-19 22:00:00 5.9 12 Este 29 Nordeste 0 -- -- 97
2019-04-19 21:00:00 6 9 Este 18 Este 0 -- -- 96
2019-04-19 20:00:00 6.2 4 Este 18 Este 0 -- -- 95
2019-04-19 19:00:00 6.6 10 Este 18 Este 0 -- -- 95
2019-04-19 18:00:00 7.2 7 Este 23 Este 0 -- -- 95
2019-04-19 17:00:00 7.5 11 Este 24 Sudeste 0 -- -- 94
2019-04-19 16:00:00 8 9 Este 19 Este 0 -- -- 94
2019-04-19 15:00:00 8.9 8 Nordeste 15 Nordeste 0 -- -- 90
2019-04-19 14:00:00 9.1 3 Norte 11 Oeste 0 -- -- 88
2019-04-19 13:00:00 9.2 5 Sudoeste 9 Sudoeste 0 -- -- 88
2019-04-19 12:00:00 8.3 3 Sudeste 7 Sudeste 0 -- -- 91
2019-04-19 11:00:00 7.5 3 Sudeste 13 Sudeste 0 -- -- 93
2019-04-19 10:00:00 7.9 4 Sudeste 11 Sudeste 0 -- -- 93
2019-04-19 09:00:00 7.6 2 Sur 5 Sur 0 -- -- 93
2019-04-19 08:00:00 7.2 2 Sur 6 Sur 0 -- -- 93
2019-04-19 07:00:00 7.4 3 Sudoeste 8 Sur 0 -- -- 95
2019-04-19 06:00:00 7.2 2 Sudoeste 9 Sudoeste 0 -- -- 95
2019-04-19 05:00:00 7.5 4 Sudoeste 10 Sudoeste 0 -- -- 95
2019-04-19 04:00:00 7.4 5 Sudoeste 14 Sudoeste 0 -- -- 94
2019-04-19 03:00:00 7.4 4 Sudoeste 14 Sudoeste 0 -- -- 95
2019-04-19 02:00:00 7.6 5 Sudoeste 16 Sudoeste 0 -- -- 94
2019-04-19 01:00:00 7.8 5 Sudoeste 13 Sudoeste 0 -- -- 95
2019-04-19 00:00:00 7.7 5 Oeste 14 Oeste 0 -- -- 95
2019-04-18 23:00:00 8.1 8 Oeste 17 Oeste 0 -- -- 94
2019-04-18 22:00:00 8.6 5 Oeste 12 Oeste 0 -- -- 92
2019-04-18 21:00:00 8.4 4 Sudoeste 23 Oeste 0 -- -- 90
2019-04-18 20:00:00 10.6 4 Noroeste 13 Oeste 0 -- -- 75
2019-04-18 19:00:00 10.7 6 Oeste 17 Oeste 0 -- -- 74
2019-04-18 18:00:00 11.8 6 Sur 13 Sur 0 -- -- 71
2019-04-18 17:00:00 11.1 3 Sudoeste 11 Sudoeste 0 -- -- 73
2019-04-18 16:00:00 10.1 3 Sudoeste 9 Sudeste 0 -- -- 80
2019-04-18 15:00:00 9 4 Sudeste 19 Sudeste 0 -- -- 85
2019-04-18 14:00:00 8.1 7 Sur 13 Sur 0 -- -- 92
2019-04-18 13:00:00 8 0 Calma 14 Noroeste 0 -- -- 93
2019-04-18 12:00:00 7.7 8 Oeste 17 Oeste 0 -- -- 91
2019-04-18 11:00:00 7.8 10 Oeste 20 Oeste 0 -- -- 93
2019-04-18 10:00:00 8.3 8 Oeste 20 Oeste 0 -- -- 95
2019-04-18 09:00:00 8.5 7 Oeste 22 Noroeste 0 -- -- 96
2019-04-18 08:00:00 10.4 3 Nordeste 7 Este 0 -- -- 96
2019-04-18 07:00:00 10.3 2 Sudoeste 18 Sudeste 0 -- -- 96
2019-04-18 06:00:00 10.6 6 Sudeste 15 Sudeste 0 -- -- 96
2019-04-18 05:00:00 10.9 2 Nordeste 10 Sudoeste 0 -- -- 94
2019-04-18 04:00:00 11.6 3 Noroeste 12 Oeste 0 -- -- 89
2019-04-18 03:00:00 12.3 4 Oeste 8 Oeste 0 -- -- 85
2019-04-18 02:00:00 12.7 4 Sudoeste 15 Oeste 0 -- -- 83
2019-04-18 01:00:00 13.9 6 Oeste 19 Oeste 0 -- -- 70
2019-04-18 00:00:00 14.8 3 Sudoeste 17 Oeste 0 -- -- 65
2019-04-17 23:00:00 15.9 2 Oeste 15 Noroeste 0 -- -- 57
2019-04-17 22:00:00 16.8 3 Sudoeste 10 Noroeste 0 -- -- 52
2019-04-17 21:00:00 18 3 Norte 18 Noroeste 0 -- -- 46
2019-04-17 20:00:00 19.7 12 Sur 30 Sur 0 -- -- 43
2019-04-17 19:00:00 21.3 19 Sur 32 Sudoeste 0 -- -- 39
2019-04-17 18:00:00 22.5 15 Sur 33 Sudeste 0 -- -- 36
2019-04-17 17:00:00 23.2 14 Sur 39 Sudeste 0 -- -- 37
2019-04-17 16:00:00 24.4 13 Sudeste 27 Sur 0 -- -- 34
2019-04-17 15:00:00 25.3 9 Sudoeste 22 Sudoeste 0 -- -- 24
2019-04-17 14:00:00 24.6 12 Sudoeste 30 Sur 0 -- -- 25
2019-04-17 13:00:00 23.4 15 Sur 29 Sur 0 -- -- 32
2019-04-17 12:00:00 20.3 10 Sudeste 27 Sur 0 -- -- 41
2019-04-17 11:00:00 17.4 14 Sur 30 Sur 0 -- -- 51
2019-04-17 10:00:00 15.1 11 Sudeste 26 Sudeste 0 -- -- 57
2019-04-17 09:00:00 12 6 Sudeste 20 Sudeste 0 -- -- 69
2019-04-17 08:00:00 8.7 8 Sudeste 20 Sur 0 -- -- 83
2019-04-17 07:00:00 8.4 3 Sudeste 16 Sudeste 0 -- -- 85
2019-04-17 06:00:00 8.6 0 Calma 14 Sudeste 0 -- -- 85
2019-04-17 05:00:00 9.1 7 Sudeste 20 Sudeste 0 -- -- 85
2019-04-17 04:00:00 9.6 5 Sudeste 19 Sudeste 0 -- -- 84
2019-04-17 03:00:00 10.2 9 Sudeste 21 Sudeste 0 -- -- 83
2019-04-17 02:00:00 10.7 8 Sudeste 24 Sudeste 0 -- -- 82
2019-04-17 01:00:00 11.6 6 Sudeste 22 Sudeste 0 -- -- 79
2019-04-17 00:00:00 12.4 8 Sur 26 Sudeste 0 -- -- 77
2019-04-16 23:00:00 13.6 7 Sudeste 24 Sudeste 0 -- -- 71
2019-04-16 22:00:00 15.5 9 Sudeste 22 Sudeste 0 -- -- 62
2019-04-16 21:00:00 18.2 3 Este 14 Sudeste 0 -- -- 42
2019-04-16 20:00:00 20.7 7 Sudeste 18 Sudeste 0 -- -- 33
2019-04-16 19:00:00 22 7 Sudeste 20 Sudeste 0 -- -- 30
2019-04-16 18:00:00 22.8 9 Sudoeste 20 Sudoeste 0 -- -- 24
2019-04-16 17:00:00 22.1 4 Sudoeste 19 Sudoeste 0 -- -- 26
2019-04-16 16:00:00 21.9 9 Sudoeste 18 Sudoeste 0 -- -- 26
2019-04-16 15:00:00 20.6 6 Sudoeste 18 Sur 0 -- -- 30
2019-04-16 14:00:00 18.8 8 Sudeste 19 Sudeste 0 -- -- 33
2019-04-16 13:00:00 17.5 6 Sur 16 Este 0 -- -- 38
2019-04-16 12:00:00 16.9 5 Sur 19 Sudeste 0 -- -- 42
2019-04-16 11:00:00 15 6 Este 15 Sudeste 0 -- -- 51
2019-04-16 10:00:00 13.5 2 Sur 6 Sur 0 -- -- 64
2019-04-16 09:00:00 9.7 0 Calma 5 Sudeste 0 -- -- 78
2019-04-16 08:00:00 5.3 0 Calma 4 Este 0 -- -- 90
2019-04-16 07:00:00 5.6 2 Oeste 4 Noroeste 0 -- -- 90
2019-04-16 06:00:00 6.9 0 Calma 5 Noroeste 0 -- -- 86
2019-04-16 05:00:00 7.6 0 Calma 6 Oeste 0 -- -- 85
2019-04-16 04:00:00 8.5 0 Calma 8 Noroeste 0 -- -- 82
2019-04-16 03:00:00 9.9 2 Noroeste 19 Noroeste 0 -- -- 78
2019-04-16 02:00:00 11.7 8 Noroeste 21 Noroeste 0 -- -- 71
2019-04-16 01:00:00 12.7 7 Noroeste 26 Noroeste 0 -- -- 70
2019-04-16 00:00:00 13.5 11 Noroeste 30 Noroeste 0 -- -- 65
2019-04-15 23:00:00 14.7 12 Noroeste 30 Noroeste 0 -- -- 56
2019-04-15 22:00:00 17 15 Oeste 32 Noroeste 0 -- -- 52
2019-04-15 21:00:00 18.3 20 Oeste 42 Oeste 0 -- -- 29
2019-04-15 20:00:00 20.3 21 Oeste 48 Oeste 0 -- -- 31
2019-04-15 19:00:00 21.9 29 Oeste 50 Oeste 0 -- -- 26
2019-04-15 18:00:00 22.7 27 Oeste 49 Noroeste 0 -- -- 27
2019-04-15 17:00:00 23.2 26 Oeste 48 Oeste 0 -- -- 27
2019-04-15 16:00:00 23.1 28 Oeste 47 Oeste 0 -- -- 26
2019-04-15 15:00:00 23.2 24 Oeste 41 Oeste 0 -- -- 31
2019-04-15 14:00:00 22 18 Oeste 37 Oeste 0 -- -- 37
2019-04-15 13:00:00 22.1 17 Oeste 30 Oeste 0 -- -- 39
2019-04-15 12:00:00 20.2 9 Oeste 18 Sudoeste 0 -- -- 47
2019-04-15 11:00:00 20.4 11 Sur 20 Sur 0 -- -- 48
2019-04-15 10:00:00 14.7 3 Sudeste 8 Sudeste 0 -- -- 72
2019-04-15 09:00:00 13.2 3 Sudeste 5 Sudeste 0 -- -- 73
2019-04-15 08:00:00 8.9 0 Calma 6 Este 0 -- -- 89
2019-04-15 07:00:00 8.9 3 Este 6 Sudeste 0 -- -- 88
2019-04-15 06:00:00 9.8 0 Calma 4 Este 0 -- -- 86
2019-04-15 05:00:00 10.4 0 Calma 3 Sur 0 -- -- 85
2019-04-15 04:00:00 10.8 0 Calma 5 Sudeste 0 -- -- 84
2019-04-15 03:00:00 10.9 0 Calma 5 Sudeste 0 -- -- 84
2019-04-15 02:00:00 11.4 2 Sudeste 5 Sudeste 0 -- -- 82
2019-04-15 01:00:00 11.6 2 Sudeste 5 Sudeste 0 -- -- 80
2019-04-15 00:00:00 12.7 2 Sur 11 Oeste 0 -- -- 75
2019-04-14 23:00:00 14.2 5 Oeste 11 Sudoeste 0 -- -- 69
2019-04-14 22:00:00 15.3 2 Norte 12 Noroeste 0 -- -- 65
2019-04-14 21:00:00 17.5 5 Noroeste 20 Noroeste 0 -- -- 59
2019-04-14 20:00:00 19.5 9 Noroeste 26 Noroeste 0 -- -- 50
2019-04-14 19:00:00 20.6 9 Oeste 27 Noroeste 0 -- -- 47
2019-04-14 18:00:00 21 8 Noroeste 28 Oeste 0 -- -- 45
2019-04-14 17:00:00 21.2 8 Noroeste 26 Noroeste 0 -- -- 45
2019-04-14 16:00:00 21.6 13 Oeste 28 Noroeste 0 -- -- 44
2019-04-14 15:00:00 21.5 13 Oeste 27 Oeste 0 -- -- 42
2019-04-14 14:00:00 20.4 10 Oeste 22 Oeste 0 -- -- 42
2019-04-14 13:00:00 19.1 11 Oeste 26 Oeste 0 -- -- 45
2019-04-14 12:00:00 17.7 10 Oeste 20 Sudoeste 0 -- -- 47
2019-04-14 11:00:00 16.6 7 Oeste 15 Noroeste 0 -- -- 50
2019-04-14 10:00:00 13.2 3 Sudoeste 7 Sur 0 -- -- 60
2019-04-14 09:00:00 9.7 2 Sudeste 5 Sudeste 0 -- -- 70
2019-04-14 08:00:00 5.2 0 Calma 4 Sudeste 0 -- -- 84
2019-04-14 07:00:00 4.5 0 Calma 3 Sudeste 0 -- -- 83
2019-04-14 06:00:00 4.9 0 Calma 3 Sudeste 0 -- -- 84
2019-04-14 05:00:00 5 0 Calma 3 Sudeste 0 -- -- 83
2019-04-14 04:00:00 5.9 0 Calma 4 Sudeste 0 -- -- 81
2019-04-14 03:00:00 6.7 2 Sudeste 4 Sudeste 0 -- -- 76
2019-04-14 02:00:00 7.7 2 Sudeste 6 Oeste 0 -- -- 72
2019-04-14 01:00:00 11.1 4 Noroeste 12 Noroeste 0 -- -- 56
2019-04-14 00:00:00 11.4 6 Noroeste 15 Noroeste 0 -- -- 56
2019-04-13 23:00:00 12.4 7 Noroeste 13 Noroeste -- -- -- 52
2019-04-13 22:00:00 13.4 5 Oeste 10 Noroeste 0 -- -- 46
2019-04-13 21:00:00 15.2 5 Noroeste 18 Noroeste 0 -- -- 39
2019-04-13 20:00:00 17.4 6 Noroeste 20 Noroeste 0 -- -- 28
2019-04-13 19:00:00 18.3 11 Noroeste 27 Noroeste 0 -- -- 27
2019-04-13 18:00:00 19 9 Noroeste 24 Noroeste 0 -- -- 28
2019-04-13 17:00:00 19.1 11 Noroeste 28 Noroeste 0 -- -- 27
2019-04-13 16:00:00 18.7 8 Noroeste 19 Norte 0 -- -- 29
2019-04-13 15:00:00 18.6 8 Noroeste 22 Noroeste 0 -- -- 29
2019-04-13 14:00:00 17 8 Norte 25 Oeste 0 -- -- 34
2019-04-13 13:00:00 16.4 9 Noroeste 26 Noroeste 0 -- -- 35
2019-04-13 12:00:00 15.9 8 Noroeste 18 Norte 0 -- -- 38
2019-04-13 11:00:00 14.9 3 Oeste 6 Noroeste 0 -- -- 44
2019-04-13 10:00:00 10.9 0 Calma 4 Sudoeste 0 -- -- 56
2019-04-13 09:00:00 5.7 0 Calma 3 Sudeste 0 -- -- 70
2019-04-13 08:00:00 0.8 0 Calma 2 Sudeste 0 -- -- 86
2019-04-13 07:00:00 0.8 0 Calma 2 Sur 0 -- -- 87
2019-04-13 06:00:00 1.4 0 Calma 2 Sudeste 0 -- -- 85
2019-04-13 05:00:00 1.9 0 Calma 2 Sudeste 0 -- -- 83
2019-04-13 04:00:00 2.2 0 Calma 3 Sudeste 0 -- -- 83
2019-04-13 03:00:00 3.2 0 Calma 3 Sudeste 0 -- -- 80
2019-04-13 02:00:00 3.9 0 Calma 4 Sudeste 0 -- -- 76
2019-04-13 01:00:00 4.3 0 Calma 4 Sudeste 0 -- -- 77
2019-04-13 00:00:00 6.4 0 Calma 4 Sudoeste 0 -- -- 68
2019-04-12 23:00:00 7.8 0 Calma 2 Sudeste 0 -- -- 60
2019-04-12 22:00:00 9.1 3 Nordeste 7 Nordeste 0 -- -- 54
2019-04-12 21:00:00 11.6 4 Nordeste 14 Norte 0 -- -- 44
2019-04-12 20:00:00 14 10 Norte 22 Nordeste 0 -- -- 36
2019-04-12 19:00:00 15.3 9 Norte 26 Nordeste 0 -- -- 32
2019-04-12 18:00:00 15.1 9 Norte 32 Norte 0 -- -- 34
2019-04-12 17:00:00 14.8 11 Norte 28 Noroeste 0 -- -- 35
2019-04-12 16:00:00 14.6 9 Norte 26 Nordeste 0 -- -- 39
2019-04-12 15:00:00 13.8 10 Norte 27 Norte 0 -- -- 43
2019-04-12 14:00:00 12.9 9 Norte 26 Norte 0 -- -- 45
2019-04-12 13:00:00 12.5 7 Norte 23 Norte 0 -- -- 46
2019-04-12 12:00:00 11.2 10 Norte 22 Nordeste 0 -- -- 48
2019-04-12 11:00:00 10.2 8 Norte 17 Norte 0 -- -- 54
2019-04-12 10:00:00 8.7 5 Norte 13 Nordeste 0 -- -- 58
2019-04-12 09:00:00 5.6 0 Calma 2 Sudoeste 0 -- -- 69
2019-04-12 08:00:00 0.3 0 Calma 2 Sudoeste 0 -- -- 87
2019-04-12 07:00:00 1 0 Calma 2 Nordeste 0 -- -- 88
2019-04-12 06:00:00 0.9 0 Calma 0 Calma 0 -- -- 87
2019-04-12 05:00:00 1.9 0 Calma 4 Sudoeste 0 -- -- 84
2019-04-12 04:00:00 3 0 Calma 4 Sudoeste 0 -- -- 77
2019-04-12 03:00:00 4 0 Calma 5 Nordeste 0 -- -- 74
2019-04-12 02:00:00 5.5 4 Nordeste 11 Nordeste 0 -- -- 67
2019-04-12 01:00:00 6.7 5 Nordeste 12 Nordeste 0 -- -- 63
2019-04-12 00:00:00 6.9 5 Nordeste 9 Nordeste 0 -- -- 62
2019-04-11 23:00:00 6.5 2 Nordeste 5 Norte 0 -- -- 64
2019-04-11 22:00:00 7.8 3 Norte 11 Noroeste 0 -- -- 58
2019-04-11 21:00:00 9.5 3 Norte 18 Norte 0 -- -- 49
2019-04-11 20:00:00 12 6 Norte 26 Norte 0 -- -- 39
2019-04-11 19:00:00 12.6 11 Norte 28 Nordeste 0 -- -- 37
2019-04-11 18:00:00 12.4 11 Norte 27 Norte 0 -- -- 42
2019-04-11 17:00:00 12.3 11 Norte 30 Norte 0 -- -- 45
2019-04-11 16:00:00 13.6 9 Norte 31 Norte 0 -- -- 43
2019-04-11 15:00:00 12.4 10 Norte 27 Nordeste 0 -- -- 48
2019-04-11 14:00:00 11.6 12 Norte 27 Norte 0 -- -- 53
2019-04-11 13:00:00 10.4 12 Norte 31 Nordeste 0 -- -- 61
2019-04-11 12:00:00 9.2 14 Norte 27 Norte 0 -- -- 66
2019-04-11 11:00:00 8.3 10 Norte 27 Norte 0 -- -- 66
2019-04-11 10:00:00 7.3 10 Norte 21 Norte 0 -- -- 73
2019-04-11 09:00:00 5.4 4 Norte 9 Norte 0 -- -- 89
2019-04-11 08:00:00 0.7 0 Calma 7 Noroeste 0 -- -- 98
2019-04-11 07:00:00 1.3 3 Norte 8 Noroeste 0 -- -- 97
2019-04-11 06:00:00 1.4 0 Calma 2 Norte 0 -- -- 97
2019-04-11 05:00:00 1.1 0 Calma 4 Sudeste 0 -- -- 96
2019-04-11 04:00:00 1.8 0 Calma 4 Norte 0 -- -- 95
2019-04-11 03:00:00 2.4 0 Calma 4 Norte 0 -- -- 95
2019-04-11 02:00:00 2.4 0 Calma 3 Sudeste 0 -- -- 94
2019-04-11 01:00:00 3.8 0 Calma 5 Oeste 0 -- -- 93
2019-04-11 00:00:00 4.4 0 Calma 5 Oeste 0 -- -- 90
2019-04-10 23:00:00 5 3 Noroeste 11 Noroeste 0 -- -- 88
2019-04-10 22:00:00 6.1 3 Norte 18 Noroeste 0 -- -- 80
2019-04-10 21:00:00 6.5 3 Noroeste 22 Norte 0 -- -- 82
2019-04-10 20:00:00 7.6 9 Noroeste 33 Noroeste 0 -- -- 76
2019-04-10 19:00:00 8.1 10 Noroeste 30 Noroeste 0 -- -- 78
2019-04-10 18:00:00 8.1 8 Noroeste 26 Noroeste 0.4 -- -- 81
2019-04-10 17:00:00 6.5 14 Norte 37 Norte 1 -- -- 83
2019-04-10 16:00:00 12 17 Noroeste 39 Oeste 0 -- -- 52
2019-04-10 15:00:00 11.5 13 Noroeste 33 Noroeste 0 -- -- 56
2019-04-10 14:00:00 11.4 11 Noroeste 33 Noroeste 0 -- -- 57
2019-04-10 13:00:00 10 10 Noroeste 23 Oeste 0 -- -- 65
2019-04-10 12:00:00 9.6 9 Oeste 22 Oeste 0 -- -- 72
2019-04-10 11:00:00 7.2 10 Noroeste 24 Noroeste 0 -- -- 83
2019-04-10 10:00:00 5 8 Noroeste 25 Noroeste 0 -- -- 90
2019-04-10 09:00:00 4.6 11 Noroeste 27 Noroeste 0 -- -- 93
2019-04-10 08:00:00 4.5 10 Noroeste 23 Noroeste 0 -- -- 93
2019-04-10 07:00:00 4.6 12 Noroeste 24 Oeste 0 -- -- 94
2019-04-10 06:00:00 4.9 10 Oeste 23 Oeste 0 -- -- 94
2019-04-10 05:00:00 4.8 12 Noroeste 23 Noroeste 0 -- -- 93
2019-04-10 04:00:00 5.4 10 Noroeste 26 Oeste 0 -- -- 91
2019-04-10 03:00:00 5.4 9 Oeste 24 Oeste 0 -- -- 90
2019-04-10 02:00:00 5.6 10 Oeste 24 Oeste 0 -- -- 88
2019-04-10 01:00:00 6.1 13 Oeste 23 Oeste 0 -- -- 86
2019-04-10 00:00:00 6 8 Oeste 22 Oeste 0 -- -- 87
2019-04-09 23:00:00 6.3 9 Oeste 21 Noroeste 0 -- -- 84
2019-04-09 22:00:00 6.7 8 Noroeste 22 Noroeste 0 -- -- 84
2019-04-09 21:00:00 7.7 11 Noroeste 37 Noroeste 0 -- -- 80
2019-04-09 20:00:00 8.2 20 Noroeste 41 Noroeste 0.2 -- -- 78
2019-04-09 19:00:00 9.2 17 Noroeste 42 Noroeste 0 -- -- 73
2019-04-09 18:00:00 8.6 16 Noroeste 39 Norte 0 -- -- 80
2019-04-09 17:00:00 9.1 19 Noroeste 44 Oeste 0 -- -- 72
2019-04-09 16:00:00 10.2 24 Noroeste 44 Oeste 0 -- -- 64
2019-04-09 15:00:00 9.8 20 Noroeste 43 Oeste 0 -- -- 67
2019-04-09 14:00:00 10.5 23 Oeste 41 Oeste 0 -- -- 61
2019-04-09 13:00:00 9.1 16 Noroeste 36 Noroeste 0 -- -- 71
2019-04-09 12:00:00 8.3 20 Oeste 38 Oeste 0 -- -- 71
2019-04-09 11:00:00 7.8 16 Noroeste 33 Oeste 0 -- -- 78
2019-04-09 10:00:00 6.1 13 Oeste 27 Oeste 0 -- -- 89
2019-04-09 09:00:00 5 12 Oeste 24 Oeste 0 -- -- 95
2019-04-09 08:00:00 3.8 7 Oeste 23 Oeste 0 -- -- 95
2019-04-09 07:00:00 4.4 13 Noroeste 26 Noroeste 0 -- -- 95
2019-04-09 06:00:00 4.1 12 Oeste 22 Noroeste 0 -- -- 93
2019-04-09 05:00:00 4.8 12 Oeste 28 Oeste 0 -- -- 92
2019-04-09 04:00:00 5 12 Oeste 21 Oeste 0 -- -- 91
2019-04-09 03:00:00 6 9 Oeste 25 Noroeste 0 -- -- 88
2019-04-09 02:00:00 6.5 11 Oeste 21 Oeste 0 -- -- 87
2019-04-09 01:00:00 6.9 8 Oeste 18 Oeste 0 -- -- 89
2019-04-09 00:00:00 7.9 10 Oeste 18 Oeste 0 -- -- 95
2019-04-08 23:00:00 7.9 8 Oeste 27 Oeste 0 -- -- 95
2019-04-08 22:00:00 8.7 15 Oeste 30 Oeste 1.2 -- -- 93
2019-04-08 21:00:00 9.9 13 Oeste 27 Oeste 0 -- -- 92
2019-04-08 20:00:00 10.5 9 Oeste 27 Oeste 0 -- -- 91
2019-04-08 19:00:00 9.8 14 Oeste 28 Sudoeste 0.4 -- -- 88
2019-04-08 18:00:00 11 14 Oeste 33 Oeste 0 -- -- 87
2019-04-08 17:00:00 11.6 15 Oeste 37 Oeste 0.4 -- -- 83
2019-04-08 16:00:00 12.4 14 Noroeste 37 Noroeste 0 -- -- 76
2019-04-08 15:00:00 12.5 17 Noroeste 39 Noroeste 0 -- -- 80
2019-04-08 14:00:00 10.4 11 Noroeste 30 Noroeste 0.4 -- -- 88
2019-04-08 13:00:00 11.3 11 Noroeste 34 Noroeste 0 -- -- 78
2019-04-08 12:00:00 11.8 17 Oeste 35 Oeste 0 -- -- 75
2019-04-08 11:00:00 10 16 Oeste 30 Oeste 0 -- -- 86
2019-04-08 10:00:00 8.7 16 Oeste 31 Oeste 0 -- -- 90
2019-04-08 09:00:00 8.1 14 Oeste 27 Noroeste 0 -- -- 93
2019-04-08 08:00:00 7.7 11 Oeste 36 Noroeste 0.2 -- -- 95
2019-04-08 07:00:00 7.9 14 Oeste 30 Oeste 0 -- -- 96
2019-04-08 06:00:00 8 13 Oeste 30 Oeste 0 -- -- 95
2019-04-08 05:00:00 7.9 12 Oeste 26 Oeste 0 -- -- 95
2019-04-08 04:00:00 8 12 Oeste 30 Oeste 0 -- -- 95
2019-04-08 03:00:00 8 13 Oeste 26 Sudoeste 0.2 -- -- 96
2019-04-08 02:00:00 7.9 10 Oeste 21 Oeste 0 -- -- 96
2019-04-08 01:00:00 7.9 13 Oeste 21 Oeste 0 -- -- 93
2019-04-08 00:00:00 7.5 10 Oeste 20 Oeste 0 -- -- 92
2019-04-07 23:00:00 7.5 9 Oeste 19 Oeste 0 -- -- 90
2019-04-07 22:00:00 7.8 12 Oeste 23 Oeste 0 -- -- 87
2019-04-07 21:00:00 8 8 Oeste 18 Oeste 0 -- -- 81
2019-04-07 20:00:00 8.5 10 Oeste 27 Noroeste 0 -- -- 77
2019-04-07 19:00:00 9.4 13 Oeste 34 Oeste 0 -- -- 68
2019-04-07 18:00:00 9.6 15 Noroeste 39 Noroeste 0 -- -- 66
2019-04-07 17:00:00 10 18 Oeste 38 Norte 0 -- -- 69
2019-04-07 16:00:00 9.8 17 Noroeste 39 Noroeste 0 -- -- 68
2019-04-07 15:00:00 9.5 18 Noroeste 39 Noroeste 0 -- -- 68
2019-04-07 14:00:00 8.9 18 Noroeste 41 Oeste 0 -- -- 72
2019-04-07 13:00:00 7.4 12 Noroeste 32 Noroeste 0 -- -- 80
2019-04-07 12:00:00 5.4 13 Noroeste 32 Noroeste 0.4 -- -- 92
2019-04-07 11:00:00 5.9 10 Noroeste 32 Noroeste 0 -- -- 92
2019-04-07 10:00:00 4.2 10 Noroeste 31 Noroeste 0 -- -- 95
2019-04-07 09:00:00 3.7 10 Noroeste 29 Noroeste 0 -- -- 94
2019-04-07 08:00:00 3.3 12 Noroeste 48 Noroeste 0 -- -- 94
2019-04-07 07:00:00 3.8 13 Noroeste 38 Noroeste 0 -- -- 95
2019-04-07 06:00:00 3.5 17 Noroeste 36 Oeste 0 -- -- 95
2019-04-07 05:00:00 3.7 14 Noroeste 36 Noroeste 0 -- -- 93
2019-04-07 04:00:00 3.8 14 Noroeste 33 Noroeste 0 -- -- 90
2019-04-07 03:00:00 3.8 18 Oeste 36 Noroeste 0 -- -- 88
2019-04-07 02:00:00 3.8 14 Oeste 28 Oeste 0 -- -- 87
2019-04-07 01:00:00 3.8 13 Oeste 32 Oeste 0 -- -- 88
2019-04-07 00:00:00 4.1 17 Oeste 31 Oeste 0 -- -- 86
2019-04-06 23:00:00 4.2 11 Oeste 36 Oeste 0 -- -- 86
2019-04-06 22:00:00 4.3 19 Oeste 45 Oeste 0 -- -- 83
2019-04-06 21:00:00 4.4 13 Oeste 31 Oeste 0 -- -- 83
2019-04-06 20:00:00 5 16 Oeste 39 Noroeste 0 -- -- 82
2019-04-06 19:00:00 5.5 12 Noroeste 31 Noroeste 0 -- -- 84
2019-04-06 18:00:00 3.7 18 Noroeste 50 Noroeste 0.4 -- -- 81
2019-04-06 17:00:00 8.4 21 Oeste 48 Oeste 0 -- -- 69
2019-04-06 16:00:00 7.8 19 Noroeste 52 Noroeste 0 -- -- 72
2019-04-06 15:00:00 5 15 Noroeste 42 Noroeste 0 -- -- 90
2019-04-06 14:00:00 4.7 17 Noroeste 42 Oeste 0 -- -- 80
2019-04-06 13:00:00 6.7 17 Oeste 48 Oeste 0 -- -- 87
2019-04-06 12:00:00 5.1 18 Oeste 35 Oeste 0 -- -- 85
2019-04-06 11:00:00 4.3 16 Oeste 37 Oeste 0 -- -- 90
2019-04-06 10:00:00 3.6 17 Oeste 35 Oeste 0 -- -- 93
2019-04-06 09:00:00 3.1 14 Oeste 32 Oeste 0 -- -- 92
2019-04-06 08:00:00 2.7 16 Oeste 37 Oeste 0 -- -- 93
2019-04-06 07:00:00 2.4 15 Oeste 36 Oeste 0 -- -- 92
2019-04-06 06:00:00 2.5 19 Oeste 36 Oeste 0 -- -- 91
2019-04-06 05:00:00 2.6 13 Oeste 38 Noroeste 0 -- -- 91
2019-04-06 04:00:00 2.8 15 Oeste 32 Oeste 0 -- -- 93
2019-04-06 03:00:00 2.5 17 Oeste 31 Oeste 0 -- -- 94
2019-04-06 02:00:00 1.8 12 Oeste 30 Oeste 0 -- -- 94
2019-04-06 01:00:00 1.5 7 Oeste 26 Noroeste 0 -- -- 94
2019-04-06 00:00:00 2.9 9 Noroeste 25 Oeste 0 -- -- 81
2019-04-05 23:00:00 2.9 10 Oeste 20 Noroeste 0 -- -- 80
2019-04-05 22:00:00 3.2 11 Oeste 24 Noroeste 0 -- -- 80
2019-04-05 21:00:00 4.3 14 Oeste 33 Noroeste 0 -- -- 76
2019-04-05 20:00:00 5.5 12 Noroeste 36 Noroeste 0 -- -- 75
2019-04-05 19:00:00 4.7 10 Oeste 39 Noroeste 0 -- -- 88
2019-04-05 18:00:00 6.7 18 Oeste 31 Oeste 0 -- -- 80
2019-04-05 17:00:00 4.2 11 Oeste 34 Oeste 0 -- -- 93
2019-04-05 16:00:00 2.9 21 Oeste 46 Oeste 1.6 -- -- 87
2019-04-05 15:00:00 6 17 Sudoeste 35 Oeste 0 -- -- 83
2019-04-05 14:00:00 6.1 13 Sudoeste 41 Sudoeste 0 -- -- 82
2019-04-05 13:00:00 6 16 Sudoeste 32 Oeste 0 -- -- 87
2019-04-05 12:00:00 5.4 12 Oeste 29 Oeste 0 -- -- 91
2019-04-05 11:00:00 5.5 12 Oeste 33 Sudoeste 0.2 -- -- 91
2019-04-05 10:00:00 5.3 15 Sudoeste 31 Sudoeste 0 -- -- 88
2019-04-05 09:00:00 5.2 16 Sudoeste 33 Sudoeste 0 -- -- 79
2019-04-05 08:00:00 4.7 11 Sudoeste 26 Sudoeste 0 -- -- 83
2019-04-05 07:00:00 4.4 14 Sudoeste 27 Oeste 0 -- -- 83
2019-04-05 06:00:00 4.8 16 Oeste 25 Oeste 0 -- -- 80
2019-04-05 05:00:00 4.8 12 Sudoeste 32 Oeste 0 -- -- 79
2019-04-05 04:00:00 4.9 14 Sudoeste 30 Oeste 0 -- -- 75
2019-04-05 03:00:00 4.9 4 Sudoeste 10 Sudoeste 0 -- -- 66
2019-04-05 02:00:00 4.9 3 Sudoeste 10 Sudoeste 0 -- -- 64
2019-04-05 01:00:00 5.9 5 Sudoeste 14 Sudoeste 0 -- -- 59
2019-04-05 00:00:00 6.7 8 Sudoeste 15 Sudoeste 0 -- -- 54
2019-04-04 23:00:00 7.8 7 Sudoeste 16 Oeste 0 -- -- 52
2019-04-04 22:00:00 9.5 9 Oeste 19 Oeste 0 -- -- 45
2019-04-04 21:00:00 11 0 Calma 10 Oeste 0 -- -- 40
2019-04-04 20:00:00 12.6 6 Oeste 24 Oeste 0 -- -- 33
2019-04-04 19:00:00 13.7 7 Oeste 24 Oeste 0 -- -- 31
2019-04-04 18:00:00 13.7 9 Noroeste 35 Oeste 0 -- -- 30
2019-04-04 17:00:00 14 7 Norte 18 Oeste 0 -- -- 30
2019-04-04 16:00:00 13 5 Este 18 Sudoeste 0 -- -- 30
2019-04-04 15:00:00 11.7 7 Nordeste 21 Oeste 0 -- -- 33
2019-04-04 14:00:00 12.1 3 Oeste 18 Norte 0 -- -- 32
2019-04-04 13:00:00 10.3 4 Nordeste 19 Nordeste 0 -- -- 34
2019-04-04 12:00:00 9.3 5 Nordeste 13 Este 0 -- -- 36
2019-04-04 11:00:00 8.6 6 Este 14 Nordeste 0 -- -- 39
2019-04-04 10:00:00 7.1 6 Este 14 Este 0 -- -- 45
2019-04-04 09:00:00 4.5 0 Calma 3 Sudeste 0 -- -- 64
2019-04-04 08:00:00 0.4 0 Calma 2 Sudeste 0 -- -- 77
2019-04-04 07:00:00 0.9 0 Calma 3 Sudeste 0 -- -- 76
2019-04-04 06:00:00 1.5 2 Nordeste 5 Nordeste 0 -- -- 71
2019-04-04 05:00:00 2.4 0 Calma 7 Norte 0 -- -- 68
2019-04-04 04:00:00 3.2 4 Nordeste 13 Norte 0 -- -- 61
2019-04-04 03:00:00 4.2 5 Norte 12 Norte 0 -- -- 56
2019-04-04 02:00:00 4.5 3 Norte 6 Norte 0 -- -- 59
2019-04-04 01:00:00 5.5 0 Calma 5 Noroeste 0 -- -- 57
2019-04-04 00:00:00 7 0 Calma 13 Norte 0 -- -- 53
2019-04-03 23:00:00 8.4 5 Norte 16 Norte 0 -- -- 48
2019-04-03 22:00:00 9.3 8 Norte 22 Noroeste 0 -- -- 49
2019-04-03 21:00:00 11.6 13 Noroeste 32 Norte 0 -- -- 42
2019-04-03 20:00:00 13.6 13 Noroeste 41 Noroeste 0 -- -- 41
2019-04-03 19:00:00 15.4 14 Noroeste 42 Noroeste 0 -- -- 35
2019-04-03 18:00:00 16.2 22 Noroeste 45 Noroeste 0 -- -- 32
2019-04-03 17:00:00 16.6 23 Noroeste 45 Noroeste 0 -- -- 31
2019-04-03 16:00:00 16.5 19 Oeste 43 Oeste 0 -- -- 36
2019-04-03 15:00:00 17 24 Oeste 41 Oeste 0 -- -- 39
2019-04-03 14:00:00 16.1 22 Oeste 41 Oeste 0 -- -- 45
2019-04-03 13:00:00 14.4 17 Oeste 36 Oeste 0 -- -- 50
2019-04-03 12:00:00 14.7 18 Oeste 31 Oeste 0 -- -- 54
2019-04-03 11:00:00 13.2 14 Oeste 28 Oeste 0 -- -- 61
2019-04-03 10:00:00 11.3 13 Oeste 23 Oeste 0 -- -- 71
2019-04-03 09:00:00 7.2 4 Sudoeste 11 Sudoeste 0 -- -- 87
2019-04-03 08:00:00 3.7 0 Calma 3 Sudeste 0 -- -- 94
2019-04-03 07:00:00 4.2 0 Calma 4 Este 0 -- -- 94
2019-04-03 06:00:00 4.8 0 Calma 6 Sudoeste 0 -- -- 93
2019-04-03 05:00:00 5.2 0 Calma 5 Sudoeste 0 -- -- 94
2019-04-03 04:00:00 5.6 0 Calma 4 Sudeste 0 -- -- 93
2019-04-03 03:00:00 6.9 0 Calma 10 Oeste 0 -- -- 89
2019-04-03 02:00:00 6.5 0 Calma 4 Sur 0 -- -- 91
2019-04-03 01:00:00 7.2 3 Sudeste 5 Sudeste 0 -- -- 90
2019-04-03 00:00:00 8.9 0 Calma 13 Oeste 0 -- -- 84
2019-04-02 23:00:00 9 5 Oeste 11 Oeste 0 -- -- 83
2019-04-02 22:00:00 10.1 0 Calma 10 Norte 0 -- -- 76
2019-04-02 21:00:00 11.9 4 Noroeste 12 Noroeste 0 -- -- 67
2019-04-02 20:00:00 13.5 7 Noroeste 20 Noroeste 0 -- -- 62
2019-04-02 19:00:00 15 9 Noroeste 28 Noroeste 0 -- -- 52
2019-04-02 18:00:00 16.3 10 Noroeste 22 Oeste 0 -- -- 46
2019-04-02 17:00:00 15.9 10 Oeste 25 Noroeste 0 -- -- 51
2019-04-02 16:00:00 14.9 5 Noroeste 18 Noroeste 0 -- -- 60
2019-04-02 15:00:00 15.2 5 Oeste 19 Oeste 0 -- -- 59
2019-04-02 14:00:00 12.8 8 Noroeste 17 Noroeste 0 -- -- 74
2019-04-02 13:00:00 12.9 8 Oeste 18 Oeste 0 -- -- 81
2019-04-02 12:00:00 10.2 9 Oeste 18 Noroeste 0 -- -- 91
2019-04-02 11:00:00 9.5 7 Oeste 16 Oeste 0 -- -- 91
2019-04-02 10:00:00 8.7 10 Oeste 17 Oeste 0 -- -- 93
2019-04-02 09:00:00 8.5 6 Oeste 12 Oeste 0 -- -- 95
2019-04-02 08:00:00 8.3 6 Oeste 10 Oeste 0 -- -- 96
2019-04-02 07:00:00 8.4 4 Oeste 10 Oeste 0 -- -- 96
2019-04-02 06:00:00 8.3 0 Calma 16 Sudoeste 0 -- -- 96
2019-04-02 05:00:00 8.4 8 Oeste 20 Sudoeste 0 -- -- 96
2019-04-02 04:00:00 8.3 6 Sudoeste 13 Oeste 0 -- -- 96
2019-04-02 03:00:00 8.2 2 Sudoeste 6 Sur 0 -- -- 95
2019-04-02 02:00:00 8.2 0 Calma 3 Sur 0 -- -- 95
2019-04-02 01:00:00 8.5 3 Sur 5 Sur 0 -- -- 94
2019-04-02 00:00:00 8.8 2 Sudoeste 6 Sur 0 -- -- 92
2019-04-01 23:00:00 8.7 4 Sur 12 Norte 0 -- -- 91
2019-04-01 22:00:00 8.8 9 Noroeste 29 Noroeste 0.2 -- -- 90
2019-04-01 21:00:00 10.6 0 Calma 4 Sur 0 -- -- 79
2019-04-01 20:00:00 12 3 Sudeste 8 Sudeste 0 -- -- 73
2019-04-01 19:00:00 13 0 Calma 9 Noroeste 0 -- -- 69
2019-04-01 18:00:00 12.3 2 Noroeste 8 Norte 0 -- -- 78
2019-04-01 17:00:00 10.2 5 Oeste 21 Oeste 0 -- -- 90
2019-04-01 16:00:00 10.3 8 Oeste 14 Oeste 0 -- -- 90
2019-04-01 15:00:00 9.4 3 Oeste 21 Oeste 0 -- -- 89
2019-04-01 14:00:00 12.8 4 Sur 10 Noroeste 0.2 -- -- 74
2019-04-01 13:00:00 11.9 5 Noroeste 14 Noroeste 0 -- -- 78
2019-04-01 12:00:00 11.5 6 Oeste 12 Noroeste 0 -- -- 78
2019-04-01 11:00:00 11.9 6 Oeste 12 Oeste 0 -- -- 77
2019-04-01 10:00:00 10.8 3 Sudoeste 6 Oeste 0 -- -- 89
2019-04-01 09:00:00 7.9 2 Sur 6 Sur 0 -- -- 95
2019-04-01 08:00:00 7.7 3 Sur 5 Sur 0 -- -- 95
2019-04-01 07:00:00 7.7 0 Calma 6 Sudoeste 0 -- -- 95
2019-04-01 06:00:00 7.8 3 Sur 13 Sur 0 -- -- 95
2019-04-01 05:00:00 7.9 5 Sur 17 Sudeste 0 -- -- 94
2019-04-01 04:00:00 7.8 5 Sur 15 Sur 0 -- -- 94
2019-04-01 03:00:00 7.7 5 Sur 13 Sur 0 -- -- 94
2019-04-01 02:00:00 7.7 7 Sudeste 18 Sur 0 -- -- 94
2019-04-01 01:00:00 8 7 Sudeste 19 Sudeste 0 -- -- 92
2019-04-01 00:00:00 8.1 5 Sudeste 18 Sudeste 0 -- -- 92
2019-03-31 23:00:00 8 7 Sudeste 17 Sudeste -- -- -- 93
2019-03-31 22:00:00 7.8 6 Sudeste 17 Sudeste 0 -- -- 94
2019-03-31 21:00:00 7.9 7 Sudeste 16 Sudeste 0 -- -- 92
2019-03-31 20:00:00 8.3 7 Sudeste 22 Sudeste 0 -- -- 90
2019-03-31 19:00:00 8.6 8 Sudeste 23 Sudeste 0 -- -- 89
2019-03-31 18:00:00 8.8 10 Sudeste 27 Sudeste 0 -- -- 86
2019-03-31 17:00:00 9.2 12 Sudeste 26 Sudeste 0 -- -- 83
2019-03-31 16:00:00 8.5 12 Sudeste 27 Sudeste 0 -- -- 86
2019-03-31 15:00:00 8.7 9 Sudeste 25 Sudeste 0 -- -- 86
2019-03-31 14:00:00 8.3 12 Sudeste 27 Este 0 -- -- 87
2019-03-31 13:00:00 7.7 10 Sudeste 27 Sudeste 0 -- -- 89
2019-03-31 12:00:00 7.5 14 Sudeste 30 Sudeste 0 -- -- 88
2019-03-31 11:00:00 6.1 14 Sudeste 30 Sudeste 0 -- -- 92
2019-03-31 10:00:00 5.4 15 Sudeste 30 Sudeste 0 -- -- 94
2019-03-31 09:00:00 5.3 12 Sudeste 24 Sudeste 0 -- -- 93
2019-03-31 08:00:00 5.5 9 Sudeste 22 Sudeste 0 -- -- 93
2019-03-31 07:00:00 6.8 7 Sudeste 18 Sudeste 0.4 -- -- 92
2019-03-31 06:00:00 7 5 Sur 18 Sur 0.6 -- -- 89
2019-03-31 05:00:00 7.7 5 Sudeste 22 Sudeste 0 -- -- 85
2019-03-31 03:00:00 8.2 8 Sudeste 26 Sudeste 0 -- -- 71
2019-03-31 01:00:00 8.1 11 Sudeste 33 Este 0 -- -- 73
2019-03-31 00:00:00 8.6 12 Sudeste 26 Sudeste 0 -- -- 66
2019-03-30 23:00:00 9.4 11 Sudeste 26 Sudeste 0 -- -- 55
2019-03-30 22:00:00 10.3 9 Sudeste 32 Sudeste 0 -- -- 59
2019-03-30 21:00:00 11.7 16 Sudeste 35 Sur 0 -- -- 55
2019-03-30 20:00:00 12.2 10 Sudeste 37 Sudeste 0 -- -- 59
2019-03-30 19:00:00 14.7 15 Sur 35 Sudeste 0 -- -- 47
2019-03-30 18:00:00 16.1 15 Sudeste 35 Sudeste 0 -- -- 41
2019-03-30 17:00:00 17.5 14 Sudeste 27 Sudeste 0 -- -- 40
2019-03-30 16:00:00 17.7 11 Sudeste 24 Sudeste 0 -- -- 38
2019-03-30 15:00:00 17.7 9 Sudeste 21 Este 0 -- -- 37
2019-03-30 14:00:00 17.1 9 Sudeste 26 Sudeste 0 -- -- 39
2019-03-30 13:00:00 16.8 7 Sudeste 21 Sudeste 0 -- -- 39
2019-03-30 12:00:00 15.8 8 Sudeste 22 Sur 0 -- -- 40
2019-03-30 11:00:00 13.2 9 Sudeste 23 Sur 0 -- -- 47
2019-03-30 10:00:00 12 8 Sudeste 18 Sudeste 0 -- -- 50
2019-03-30 09:00:00 8.3 8 Sudeste 19 Sudeste 0 -- -- 61
2019-03-30 08:00:00 5.9 4 Sudeste 13 Sur 0 -- -- 70
2019-03-30 07:00:00 4.4 2 Sur 14 Sudeste 0 -- -- 72
2019-03-30 06:00:00 5.3 8 Sudeste 20 Sudeste 0 -- -- 68
2019-03-30 05:00:00 5.7 7 Sudeste 19 Sudeste 0 -- -- 66
2019-03-30 04:00:00 5.9 8 Sudeste 21 Sudeste 0 -- -- 64
2019-03-30 03:00:00 6.3 9 Sudeste 21 Sudeste 0 -- -- 63
2019-03-30 02:00:00 6.6 8 Sur 28 Sur 0 -- -- 58
2019-03-30 01:00:00 6.2 10 Sur 26 Sur 0 -- -- 59
2019-03-30 00:00:00 6.5 10 Sudeste 31 Sur 0 -- -- 64
2019-03-29 23:00:00 7.2 11 Sudeste 30 Sur 0 -- -- 66
2019-03-29 22:00:00 7.9 8 Sudeste 29 Sur 0 -- -- 63
2019-03-29 21:00:00 9 8 Sudeste 27 Sudeste 0 -- -- 59
2019-03-29 20:00:00 10.6 10 Sudeste 28 Sudeste 0 -- -- 54
2019-03-29 19:00:00 12.6 10 Sudeste 33 Sudeste 0 -- -- 45
2019-03-29 18:00:00 14.3 12 Sudeste 36 Sudeste 0 -- -- 39
2019-03-29 17:00:00 14.5 17 Sudeste 33 Sudeste 0 -- -- 38
2019-03-29 16:00:00 14.7 11 Sudeste 31 Sudeste 0 -- -- 33
2019-03-29 15:00:00 15.2 11 Sudeste 35 Este 0 -- -- 37
2019-03-29 14:00:00 13.7 15 Sudeste 38 Sur 0 -- -- 40
2019-03-29 13:00:00 13.4 14 Sudeste 33 Sudeste 0 -- -- 40
2019-03-29 12:00:00 13.1 16 Sudeste 35 Sudeste 0 -- -- 39
2019-03-29 11:00:00 11.8 15 Sudeste 36 Sudeste 0 -- -- 43
2019-03-29 10:00:00 10.1 15 Sudeste 38 Sudeste 0 -- -- 47
2019-03-29 09:00:00 8.8 11 Sudeste 30 Sudeste 0 -- -- 49
2019-03-29 08:00:00 6.1 9 Sur 23 Sur 0 -- -- 54
2019-03-29 07:00:00 4.1 10 Sudeste 32 Sudeste 0 -- -- 57
2019-03-29 06:00:00 4.4 13 Sudeste 25 Sudeste 0 -- -- 52
2019-03-29 05:00:00 4.1 12 Sudeste 23 Sudeste 0 -- -- 50
2019-03-29 04:00:00 4.2 6 Sudeste 17 Sur 0 -- -- 47
2019-03-29 03:00:00 4.9 9 Sudeste 16 Sudeste 0 -- -- 45
2019-03-29 02:00:00 4.5 5 Sudeste 12 Sudeste 0 -- -- 51
2019-03-29 01:00:00 5.1 6 Sudeste 10 Sudeste 0 -- -- 47
2019-03-29 00:00:00 5 4 Sudeste 15 Sudeste 0 -- -- 43
2019-03-28 23:00:00 5.6 6 Sudeste 10 Sur 0 -- -- 40
2019-03-28 22:00:00 7.4 5 Sudeste 14 Sur 0 -- -- 35
2019-03-28 21:00:00 9.1 8 Sur 16 Sur 0 -- -- 33
2019-03-28 20:00:00 11.1 9 Sur 22 Sur 0 -- -- 31
2019-03-28 19:00:00 13.6 9 Sudeste 26 Sudeste 0 -- -- 27
2019-03-28 18:00:00 14.9 10 Sudeste 30 Sudeste 0 -- -- 26
2019-03-28 17:00:00 15.2 13 Sudeste 31 Sudeste 0 -- -- 25
2019-03-28 16:00:00 15.6 15 Sudeste 33 Sudeste 0 -- -- 24
2019-03-28 15:00:00 16.1 15 Sudeste 37 Sudeste 0 -- -- 24
2019-03-28 14:00:00 15.9 15 Sur 33 Sudeste 0 -- -- 24
2019-03-28 13:00:00 15.4 15 Sudeste 31 Sur 0 -- -- 25
2019-03-28 12:00:00 14.3 13 Sudeste 31 Sudeste 0 -- -- 26
2019-03-28 11:00:00 12.8 15 Sur 33 Sur 0 -- -- 23
2019-03-28 10:00:00 11.4 12 Sur 27 Sudeste 0 -- -- 24
2019-03-28 09:00:00 9.9 8 Sudeste 19 Sudeste 0 -- -- 23
2019-03-28 08:00:00 5.2 3 Sudeste 6 Sudeste 0 -- -- 38
2019-03-28 07:00:00 0.3 0 Calma 4 Sudeste 0 -- -- 54
2019-03-28 06:00:00 0.2 2 Sudeste 6 Sudeste 0 -- -- 54
2019-03-28 05:00:00 0.8 3 Sudeste 9 Sudeste 0 -- -- 52
2019-03-28 04:00:00 1.9 3 Sudeste 10 Sudeste 0 -- -- 52
2019-03-28 03:00:00 3.1 2 Sur 7 Sudeste 0 -- -- 57
2019-03-28 02:00:00 3.7 3 Sudeste 11 Sudeste 0 -- -- 62
2019-03-28 01:00:00 4.6 3 Sudeste 13 Sudeste 0 -- -- 63
2019-03-28 00:00:00 5.3 4 Sur 15 Sudeste 0 -- -- 59
2019-03-27 23:00:00 5.7 4 Sudeste 12 Sudeste 0 -- -- 50
2019-03-27 22:00:00 7.4 3 Sur 10 Sudeste 0 -- -- 39
2019-03-27 21:00:00 8.4 2 Este 8 Sudeste 0 -- -- 35
2019-03-27 20:00:00 10.7 4 Sudeste 23 Sudeste 0 -- -- 31
2019-03-27 19:00:00 13.1 8 Sudeste 25 Sudeste 0 -- -- 28
2019-03-27 18:00:00 14 10 Este 28 Sudeste 0 -- -- 29
2019-03-27 17:00:00 14.4 12 Sudeste 36 Sudeste 0 -- -- 26
2019-03-27 16:00:00 14.6 14 Sudeste 33 Sudeste 0 -- -- 24
2019-03-27 15:00:00 14.7 14 Este 35 Sudeste 0 -- -- 23
2019-03-27 14:00:00 14.4 12 Sudeste 31 Sudeste 0 -- -- 24
2019-03-27 13:00:00 13.3 14 Sudeste 39 Sudeste 0 -- -- 27
2019-03-27 12:00:00 12.3 15 Sudeste 32 Sudeste 0 -- -- 28
2019-03-27 11:00:00 11.3 13 Sudeste 31 Sudeste 0 -- -- 33
2019-03-27 10:00:00 9.7 14 Sudeste 30 Sudeste 0 -- -- 38
2019-03-27 09:00:00 7.7 12 Sudeste 23 Sudeste 0 -- -- 48
2019-03-27 08:00:00 4.6 7 Sudeste 19 Sudeste 0 -- -- 64
2019-03-27 07:00:00 2.5 11 Sudeste 22 Sudeste 0 -- -- 69
2019-03-27 06:00:00 2.8 13 Sudeste 27 Sudeste 0 -- -- 67
2019-03-27 05:00:00 3.7 15 Sudeste 30 Sudeste 0 -- -- 59
2019-03-27 04:00:00 4.3 9 Sudeste 32 Sudeste 0 -- -- 63
2019-03-27 03:00:00 4.3 12 Sudeste 37 Sudeste 0 -- -- 77
2019-03-27 02:00:00 4.5 22 Sudeste 44 Sudeste 0 -- -- 81
2019-03-27 01:00:00 5.8 18 Sudeste 38 Sudeste 0 -- -- 78
2019-03-27 00:00:00 6.6 18 Sudeste 31 Sudeste 0 -- -- 77